Airfield :
LOGIN :

Register | Disclaimer

   EN    FR    IT 

 










Legend :    VFR   Marginal VFR   IFR   Intensive IFR   Very Intensive IFR
Visi :
Ceiling :
>= 8 km
>= 3000ft
5 to 8 km
1000 to 3000 ft
1500m to 5 km
500 to 1000 ft
800 to 1500m
200 to 500 ft
< 800m
< 200 ft
Symbols :   Thunderstorms  Fog  Heavy snow  Heavy precipitations  Wind > 20 kt
SIGMETs :     Misc.  Thunderstorms  Icing  Turbulence  Mountain Waves  Volcanic Ashes







- Airport Elevation : 13 ft
- IATA code : OST


EBOS - Oostend bruges Int.

CURRENT METAR :
  • 211920Z 26007KT CAVOK 18/13 Q1023 NOSIG

EXPIRED METARs :
  • 211850Z 26006KT CAVOK 19/13 Q1023 NOSIG
  • 211820Z 28009KT CAVOK 19/12 Q1023 NOSIG
  • 211750Z 28010KT 9999 FEW030 19/12 Q1023 BECMG 21006KT
  • 211720Z 28010KT 9999 FEW035 20/13 Q1023 NOSIG
  • 211650Z 29009KT 9999 FEW035 20/13 Q1023 NOSIG

TAF TAF EBOS
Valid from the 21 at 18:00 until the 23 at 00:00 UTC


211720Z 2118/2224 29010KT 9999 FEW038
BECMG 2119/2121 20006KT
PROB30
TEMPO 2206/2208 BKN008
PROB40
TEMPO 2212/2218 27010KT
No reported NOTAMs for that airfield.



MET'MAP, your aeronautical weather chart ! - Copyright ORBIFLY December 2007 - Disclaimer

ORBIFLY MET'MAP TEAM :

Programming & Development : Alexandra Zaïnal
Concept & Development : Baudouin d'Aumeries
Co-Development & Prog : Marc-Olivier Méhu
Technical & hardware support : Manuel Goepfert

Contact : metmap@orbifly.com




SOURCES & CREDITS :

   NOAA